Time,TemperatureF,DewpointF,PressureIn,WindDirection,WindDirectionDegrees,WindSpeedMPH,WindSpeedGustMPH,Humidity,HourlyPrecipIn,Conditions,Clouds,dailyrainin,SoftwareType,DateUTC
2013-10-10 00:00:00,46.2,41.7,27.17,North,0,0.0,0.0,84,0.00,CLR,CLR,0.00,WeatherDisplay:10.37,2013-10-10 05:00:00,
2013-10-10 00:02:00,51.3,43.3,26.98,North,0,0.0,0.0,74,0.00,CLR,,0.00,WeatherDisplay:10.37,2013-10-10 05:02:00,
2013-10-10 00:05:00,46.2,41.7,27.17,North,0,0.0,0.0,84,0.00,CLR,CLR,0.00,WeatherDisplay:10.37,2013-10-10 05:05:00,
2013-10-10 00:07:00,51.3,43.3,26.98,North,0,0.0,0.0,74,0.00,CLR,,0.00,WeatherDisplay:10.37,2013-10-10 05:07:00,
2013-10-10 00:10:00,46.2,41.7,27.17,North,0,0.0,0.0,84,0.00,CLR,CLR,0.00,WeatherDisplay:10.37,2013-10-10 05:10:00,
2013-10-10 00:12:00,51.1,43.1,26.98,North,0,1.2,0.0,74,0.00,CLR,,0.00,WeatherDisplay:10.37,2013-10-10 05:12:00,
2013-10-10 00:15:00,46.2,41.7,27.17,North,0,0.0,0.0,84,0.00,CLR,CLR,0.00,WeatherDisplay:10.37,2013-10-10 05:15:00,
2013-10-10 00:17:00,51.1,43.4,26.98,North,0,0.0,0.0,75,0.00,CLR,,0.00,WeatherDisplay:10.37,2013-10-10 05:17:00,
2013-10-10 00:20:00,46.2,41.7,27.17,North,0,0.0,0.0,84,0.00,CLR,CLR,0.00,WeatherDisplay:10.37,2013-10-10 05:20:00,
2013-10-10 00:22:00,51.1,43.4,26.98,SW,225,0.0,0.7,75,0.00,CLR,,0.00,WeatherDisplay:10.37,2013-10-10 05:22:00,
2013-10-10 00:25:00,46.2,41.7,27.17,North,0,0.0,0.0,84,0.00,CLR,CLR,0.00,WeatherDisplay:10.37,2013-10-10 05:25:00,
2013-10-10 00:27:00,50.9,43.3,26.98,SW,225,0.0,0.0,75,0.00,CLR,,0.00,WeatherDisplay:10.37,2013-10-10 05:27:00,
2013-10-10 00:30:00,46.2,41.7,27.17,North,0,0.0,0.0,84,0.00,CLR,CLR,0.00,WeatherDisplay:10.37,2013-10-10 05:30:00,
2013-10-10 00:32:00,50.9,43.3,26.99,SW,225,1.2,0.0,75,0.00,CLR,,0.00,WeatherDisplay:10.37,2013-10-10 05:32:00,
2013-10-10 00:35:00,46.2,41.7,27.17,North,0,0.0,0.0,84,0.00,CLR,CLR,0.00,WeatherDisplay:10.37,2013-10-10 05:35:00,
2013-10-10 00:37:00,50.7,43.1,26.98,SW,225,1.2,0.0,75,0.00,CLR,,0.00,WeatherDisplay:10.37,2013-10-10 05:37:00,
2013-10-10 00:40:00,46.2,41.7,27.17,North,0,0.0,0.0,84,0.00,CLR,CLR,0.00,WeatherDisplay:10.37,2013-10-10 05:40:00,
2013-10-10 00:42:00,50.4,42.7,26.98,SW,225,1.2,0.0,75,0.00,CLR,,0.00,WeatherDisplay:10.37,2013-10-10 05:42:00,
2013-10-10 00:45:00,46.2,41.7,27.17,North,0,0.0,0.0,84,0.00,CLR,CLR,0.00,WeatherDisplay:10.37,2013-10-10 05:45:00,
2013-10-10 00:47:00,50.2,42.6,26.99,SW,225,0.0,0.0,75,0.00,CLR,,0.00,WeatherDisplay:10.37,2013-10-10 05:47:00,
2013-10-10 00:50:00,46.2,41.7,27.17,North,0,0.0,0.0,84,0.00,CLR,CLR,0.00,WeatherDisplay:10.37,2013-10-10 05:50:00,
2013-10-10 00:52:00,50.2,42.6,26.98,SW,225,0.0,0.0,75,0.00,CLR,,0.00,WeatherDisplay:10.37,2013-10-10 05:52:00,
2013-10-10 00:55:00,46.2,41.7,27.17,North,0,0.0,0.0,84,0.00,CLR,CLR,0.00,WeatherDisplay:10.37,2013-10-10 05:55:00,
2013-10-10 00:57:00,50.0,42.7,26.98,North,0,0.0,0.0,76,0.00,CLR,,0.00,WeatherDisplay:10.37,2013-10-10 05:57:00,
2013-10-10 01:00:00,46.2,41.7,27.17,North,0,0.0,0.0,84,0.00,CLR,CLR,0.00,WeatherDisplay:10.37,2013-10-10 06:00:00,
2013-10-10 01:02:00,50.0,42.7,26.99,North,0,1.2,0.0,76,0.00,CLR,,0.00,WeatherDisplay:10.37,2013-10-10 06:02:00,
2013-10-10 01:05:00,46.2,41.7,27.17,North,0,0.0,0.0,84,0.00,CLR,CLR,0.00,WeatherDisplay:10.37,2013-10-10 06:05:00,
2013-10-10 01:07:00,49.6,43.1,26.98,South,180,1.2,1.6,78,0.00,CLR,,0.00,WeatherDisplay:10.37,2013-10-10 06:07:00,
2013-10-10 01:10:00,46.2,41.7,27.17,North,0,0.0,0.0,84,0.00,CLR,CLR,0.00,WeatherDisplay:10.37,2013-10-10 06:10:00,
2013-10-10 01:12:00,49.6,43.4,26.98,NE,45,1.2,0.0,79,0.00,CLR,,0.00,WeatherDisplay:10.37,2013-10-10 06:12:00,
2013-10-10 01:15:00,46.2,41.7,27.17,North,0,0.0,0.0,84,0.00,CLR,CLR,0.00,WeatherDisplay:10.37,2013-10-10 06:15:00,
2013-10-10 01:17:00,49.5,43.2,26.99,West,270,1.2,0.0,79,0.00,CLR,,0.00,WeatherDisplay:10.37,2013-10-10 06:17:00,
2013-10-10 01:20:00,46.2,41.7,27.17,North,0,0.0,0.0,84,0.00,CLR,CLR,0.00,WeatherDisplay:10.37,2013-10-10 06:20:00,
2013-10-10 01:22:00,49.5,43.2,26.99,West,270,0.0,0.0,79,0.00,CLR,,0.00,WeatherDisplay:10.37,2013-10-10 06:22:00,
2013-10-10 01:25:00,46.2,41.7,27.17,North,0,0.0,0.0,84,0.00,CLR,CLR,0.00,WeatherDisplay:10.37,2013-10-10 06:25:00,
2013-10-10 01:27:00,49.5,43.2,26.99,SE,135,1.2,0.0,79,0.00,CLR,,0.00,WeatherDisplay:10.37,2013-10-10 06:27:00,
2013-10-10 01:30:00,46.2,41.7,27.17,North,0,0.0,0.0,84,0.00,CLR,CLR,0.00,WeatherDisplay:10.37,2013-10-10 06:30:00,
2013-10-10 01:32:00,49.3,42.7,26.99,North,0,0.0,0.0,78,0.00,CLR,,0.00,WeatherDisplay:10.37,2013-10-10 06:32:00,
2013-10-10 01:35:00,46.2,41.7,27.17,North,0,0.0,0.0,84,0.00,CLR,CLR,0.00,WeatherDisplay:10.37,2013-10-10 06:35:00,
2013-10-10 01:37:00,49.1,42.5,26.99,SW,225,0.0,0.0,78,0.00,CLR,,0.00,WeatherDisplay:10.37,2013-10-10 06:37:00,
2013-10-10 01:40:00,46.2,41.7,27.17,North,0,0.0,0.0,84,0.00,CLR,CLR,0.00,WeatherDisplay:10.37,2013-10-10 06:40:00,
2013-10-10 01:42:00,49.1,42.5,26.99,SW,225,1.2,0.0,78,0.00,CLR,,0.00,WeatherDisplay:10.37,2013-10-10 06:42:00,
2013-10-10 01:45:00,46.2,41.7,27.17,North,0,0.0,0.0,84,0.00,CLR,CLR,0.00,WeatherDisplay:10.37,2013-10-10 06:45:00,
2013-10-10 01:47:00,48.9,42.4,26.99,SW,225,0.0,0.0,78,0.00,CLR,,0.00,WeatherDisplay:10.37,2013-10-10 06:47:00,
2013-10-10 01:50:00,46.2,41.7,27.17,North,0,0.0,0.0,84,0.00,CLR,CLR,0.00,WeatherDisplay:10.37,2013-10-10 06:50:00,
2013-10-10 01:52:00,48.9,42.4,26.99,SW,225,0.0,0.0,78,0.00,CLR,,0.00,WeatherDisplay:10.37,2013-10-10 06:52:00,
2013-10-10 01:55:00,46.2,41.7,27.17,North,0,0.0,0.0,84,0.00,CLR,CLR,0.00,WeatherDisplay:10.37,2013-10-10 06:55:00,
2013-10-10 01:57:00,48.9,42.4,26.99,SW,225,0.0,0.0,78,0.00,CLR,,0.00,WeatherDisplay:10.37,2013-10-10 06:57:00,
2013-10-10 02:00:00,46.2,41.7,27.17,North,0,0.0,0.0,84,0.00,CLR,CLR,0.00,WeatherDisplay:10.37,2013-10-10 07:00:00,
2013-10-10 02:02:00,48.7,42.2,26.99,SW,225,0.0,0.0,78,0.00,CLR,,0.00,WeatherDisplay:10.37,2013-10-10 07:02:00,
2013-10-10 02:05:00,46.2,41.7,27.17,North,0,0.0,0.0,84,0.00,CLR,CLR,0.00,WeatherDisplay:10.37,2013-10-10 07:05:00,
2013-10-10 02:07:00,48.6,42.3,26.99,North,0,1.2,0.0,79,0.00,CLR,,0.00,WeatherDisplay:10.37,2013-10-10 07:07:00,
2013-10-10 02:10:00,46.2,41.7,27.17,North,0,0.0,0.0,84,0.00,CLR,CLR,0.00,WeatherDisplay:10.37,2013-10-10 07:10:00,
2013-10-10 02:12:00,48.2,42.0,26.99,North,0,0.0,0.0,79,0.00,CLR,,0.00,WeatherDisplay:10.37,2013-10-10 07:12:00,
2013-10-10 02:15:00,46.2,41.7,27.17,North,0,0.0,0.0,84,0.00,CLR,CLR,0.00,WeatherDisplay:10.37,2013-10-10 07:15:00,
2013-10-10 02:17:00,48.0,42.1,26.99,SW,225,1.2,0.0,80,0.00,CLR,,0.00,WeatherDisplay:10.37,2013-10-10 07:17:00,
2013-10-10 02:20:00,46.2,41.7,27.17,North,0,0.0,0.0,84,0.00,CLR,CLR,0.00,WeatherDisplay:10.37,2013-10-10 07:20:00,
2013-10-10 02:22:00,47.8,42.0,26.99,SW,225,1.2,0.0,80,0.00,CLR,,0.00,WeatherDisplay:10.37,2013-10-10 07:22:00,
2013-10-10 02:25:00,46.2,41.7,27.17,North,0,0.0,0.0,84,0.00,CLR,CLR,0.00,WeatherDisplay:10.37,2013-10-10 07:25:00,
2013-10-10 02:27:00,47.8,42.0,26.98,SW,225,1.2,0.0,80,0.00,CLR,,0.00,WeatherDisplay:10.37,2013-10-10 07:27:00,
2013-10-10 02:30:00,46.2,41.7,27.17,North,0,0.0,0.0,84,0.00,CLR,CLR,0.00,WeatherDisplay:10.37,2013-10-10 07:30:00,
2013-10-10 02:32:00,47.8,42.0,26.98,NE,45,1.2,0.0,80,0.00,CLR,,0.00,WeatherDisplay:10.37,2013-10-10 07:32:00,
2013-10-10 02:35:00,46.2,41.7,27.17,North,0,0.0,0.0,84,0.00,CLR,CLR,0.00,WeatherDisplay:10.37,2013-10-10 07:35:00,
2013-10-10 02:37:00,47.5,41.9,26.99,NW,315,3.5,3.5,81,0.00,CLR,,0.00,WeatherDisplay:10.37,2013-10-10 07:37:00,
2013-10-10 02:40:00,46.2,41.7,27.17,North,0,0.0,0.0,84,0.00,CLR,CLR,0.00,WeatherDisplay:10.37,2013-10-10 07:40:00,
2013-10-10 02:42:00,47.1,41.9,26.99,North,0,1.2,2.2,82,0.00,CLR,,0.00,WeatherDisplay:10.37,2013-10-10 07:42:00,
2013-10-10 02:45:00,46.2,41.7,27.17,North,0,0.0,0.0,84,0.00,CLR,CLR,0.00,WeatherDisplay:10.37,2013-10-10 07:45:00,
2013-10-10 02:47:00,46.8,41.9,26.99,NW,315,1.2,0.0,83,0.00,CLR,,0.00,WeatherDisplay:10.37,2013-10-10 07:47:00,
2013-10-10 02:50:00,46.2,41.7,27.17,North,0,0.0,0.0,84,0.00,CLR,CLR,0.00,WeatherDisplay:10.37,2013-10-10 07:50:00,
2013-10-10 02:52:00,46.6,41.7,26.99,NW,315,1.2,0.0,83,0.00,CLR,,0.00,WeatherDisplay:10.37,2013-10-10 07:52:00,
2013-10-10 02:55:00,46.2,41.7,27.17,North,0,0.0,0.0,84,0.00,CLR,CLR,0.00,WeatherDisplay:10.37,2013-10-10 07:55:00,
2013-10-10 02:57:00,46.4,41.8,26.99,South,180,1.2,0.0,84,0.00,CLR,,0.00,WeatherDisplay:10.37,2013-10-10 07:57:00,
2013-10-10 03:00:00,46.2,41.7,27.17,North,0,0.0,0.0,84,0.00,CLR,CLR,0.00,WeatherDisplay:10.37,2013-10-10 08:00:00,
2013-10-10 03:02:00,46.4,41.8,26.99,South,180,0.0,0.0,84,0.00,CLR,,0.00,WeatherDisplay:10.37,2013-10-10 08:02:00,
2013-10-10 03:05:00,46.2,41.7,27.17,North,0,0.0,0.0,84,0.00,CLR,CLR,0.00,WeatherDisplay:10.37,2013-10-10 08:05:00,
2013-10-10 03:08:00,46.4,41.5,26.99,North,0,0.0,0.0,83,0.00,CLR,,0.00,WeatherDisplay:10.37,2013-10-10 08:08:00,
2013-10-10 03:10:00,46.2,41.7,27.17,North,0,0.0,0.0,84,0.00,CLR,CLR,0.00,WeatherDisplay:10.37,2013-10-10 08:10:00,
2013-10-10 03:13:00,46.4,41.8,27.00,NW,315,1.2,0.0,84,0.00,CLR,,0.00,WeatherDisplay:10.37,2013-10-10 08:13:00,
2013-10-10 03:15:00,46.2,41.7,27.17,North,0,0.0,0.0,84,0.00,CLR,CLR,0.00,WeatherDisplay:10.37,2013-10-10 08:15:00,
2013-10-10 03:18:00,46.2,41.7,26.99,North,0,1.2,0.0,84,0.00,CLR,,0.00,WeatherDisplay:10.37,2013-10-10 08:18:00,
2013-10-10 03:20:00,46.2,41.7,27.17,North,0,0.0,0.0,84,0.00,CLR,CLR,0.00,WeatherDisplay:10.37,2013-10-10 08:20:00,
2013-10-10 03:23:00,46.2,41.7,27.00,North,0,1.2,0.0,84,0.00,CLR,,0.00,WeatherDisplay:10.37,2013-10-10 08:23:00,
2013-10-10 03:25:00,46.2,41.7,27.17,North,0,0.0,0.0,84,0.00,CLR,CLR,0.00,WeatherDisplay:10.37,2013-10-10 08:25:00,
2013-10-10 03:28:00,46.2,41.7,26.99,North,0,0.0,0.0,84,0.00,CLR,,0.00,WeatherDisplay:10.37,2013-10-10 08:28:00,
2013-10-10 03:30:00,46.2,41.7,27.17,North,0,0.0,0.0,84,0.00,CLR,CLR,0.00,WeatherDisplay:10.37,2013-10-10 08:30:00,
2013-10-10 03:35:00,46.2,41.7,27.17,North,0,0.0,0.0,84,0.00,CLR,CLR,0.00,WeatherDisplay:10.37,2013-10-10 08:35:00,
2013-10-10 03:40:00,46.2,41.7,27.17,North,0,0.0,0.0,84,0.00,CLR,CLR,0.00,WeatherDisplay:10.37,2013-10-10 08:40:00,
2013-10-10 03:45:00,46.2,41.7,27.17,North,0,0.0,0.0,84,0.00,CLR,CLR,0.00,WeatherDisplay:10.37,2013-10-10 08:45:00,
2013-10-10 03:50:00,46.2,41.7,27.17,North,0,0.0,0.0,84,0.00,CLR,CLR,0.00,WeatherDisplay:10.37,2013-10-10 08:50:00,
2013-10-10 03:55:00,46.2,41.7,27.17,North,0,0.0,0.0,84,0.00,CLR,CLR,0.00,WeatherDisplay:10.37,2013-10-10 08:55:00,
2013-10-10 04:00:00,46.2,41.7,27.17,North,0,0.0,0.0,84,0.00,CLR,CLR,0.00,WeatherDisplay:10.37,2013-10-10 09:00:00,
2013-10-10 04:05:00,46.2,41.7,27.17,North,0,0.0,0.0,84,0.00,CLR,CLR,0.00,WeatherDisplay:10.37,2013-10-10 09:05:00,
2013-10-10 04:10:00,46.2,41.7,27.17,North,0,0.0,0.0,84,0.00,CLR,CLR,0.00,WeatherDisplay:10.37,2013-10-10 09:10:00,
2013-10-10 04:15:00,46.2,41.7,27.17,North,0,0.0,0.0,84,0.00,CLR,CLR,0.00,WeatherDisplay:10.37,2013-10-10 09:15:00,
2013-10-10 04:20:00,46.2,41.7,27.17,North,0,0.0,0.0,84,0.00,CLR,CLR,0.00,WeatherDisplay:10.37,2013-10-10 09:20:00,
2013-10-10 04:25:00,46.2,41.7,27.17,North,0,0.0,0.0,84,0.00,CLR,CLR,0.00,WeatherDisplay:10.37,2013-10-10 09:25:00,
2013-10-10 04:30:00,46.2,41.7,27.17,North,0,0.0,0.0,84,0.00,CLR,CLR,0.00,WeatherDisplay:10.37,2013-10-10 09:30:00,
2013-10-10 04:35:00,46.2,41.7,27.17,North,0,0.0,0.0,84,0.00,CLR,CLR,0.00,WeatherDisplay:10.37,2013-10-10 09:35:00,
2013-10-10 04:40:00,46.2,41.7,27.17,North,0,0.0,0.0,84,0.00,CLR,CLR,0.00,WeatherDisplay:10.37,2013-10-10 09:40:00,
2013-10-10 04:45:00,46.2,41.7,27.17,North,0,0.0,0.0,84,0.00,CLR,CLR,0.00,WeatherDisplay:10.37,2013-10-10 09:45:00,
2013-10-10 04:50:00,46.2,41.7,27.17,North,0,0.0,0.0,84,0.00,CLR,CLR,0.00,WeatherDisplay:10.37,2013-10-10 09:50:00,
2013-10-10 04:55:00,46.2,41.7,27.17,North,0,0.0,0.0,84,0.00,CLR,CLR,0.00,WeatherDisplay:10.37,2013-10-10 09:55:00,
2013-10-10 05:00:00,46.2,41.7,27.17,North,0,0.0,0.0,84,0.00,CLR,CLR,0.00,WeatherDisplay:10.37,2013-10-10 10:00:00,
2013-10-10 05:05:00,46.2,41.7,27.17,North,0,0.0,0.0,84,0.00,CLR,CLR,0.00,WeatherDisplay:10.37,2013-10-10 10:05:00,
2013-10-10 05:10:00,46.2,41.7,27.17,North,0,0.0,0.0,84,0.00,CLR,CLR,0.00,WeatherDisplay:10.37,2013-10-10 10:10:00,
2013-10-10 05:15:00,46.2,41.7,27.17,North,0,0.0,0.0,84,0.00,CLR,CLR,0.00,WeatherDisplay:10.37,2013-10-10 10:15:00,
2013-10-10 05:25:00,77.5,49.9,28.05,North,0,0.0,0.0,38,0.00,CLR,CLR,0.00,WeatherDisplay:10.37,2013-10-10 10:25:00,
2013-10-10 16:24:00,77.5,49.9,28.05,North,0,0.0,0.0,38,0.00,CLR,,0.00,WeatherDisplay:10.37,2013-10-10 21:24:00,
2013-10-10 16:25:00,77.5,49.9,28.05,North,0,0.0,0.0,38,0.00,CLR,,0.00,WeatherDisplay:10.37,2013-10-10 21:25:00,
2013-10-10 16:30:00,84.4,46.7,26.74,SE,135,18.4,18.4,27,0.00,CLR,,0.00,WeatherDisplay:10.37,2013-10-10 21:30:00,
2013-10-10 16:35:00,84.2,46.6,26.74,SW,225,9.2,9.2,27,0.00,CLR,,0.00,WeatherDisplay:10.37,2013-10-10 21:35:00,
2013-10-10 16:40:00,84.0,46.5,28.05,South,173,12.0,31.0,27,0.00,CLR,CLR,0.00,WeatherDisplay:10.37,2013-10-10 21:40:00,
2013-10-10 16:45:00,83.7,46.1,26.73,SW,225,10.4,10.4,27,0.00,CLR,,0.00,WeatherDisplay:10.37,2013-10-10 21:45:00,
2013-10-10 16:50:00,83.7,47.1,28.05,South,180,6.0,17.0,28,0.00,CLR,CLR,0.00,WeatherDisplay:10.37,2013-10-10 21:50:00,
2013-10-10 16:55:00,83.7,47.1,26.73,East,90,18.4,18.4,28,0.00,CLR,,0.00,WeatherDisplay:10.37,2013-10-10 21:55:00,
2013-10-10 17:00:00,84.1,46.5,28.05,SSE,163,13.0,23.0,27,0.00,CLR,CLR,0.00,WeatherDisplay:10.37,2013-10-10 22:00:00,
2013-10-10 17:05:00,84.2,45.6,26.73,South,180,19.6,19.6,26,0.00,CLR,,0.00,WeatherDisplay:10.37,2013-10-10 22:05:00,
2013-10-10 17:10:00,84.2,45.6,28.05,South,180,10.0,20.0,26,0.00,CLR,CLR,0.00,WeatherDisplay:10.37,2013-10-10 22:10:00,
2013-10-10 17:15:00,83.9,46.3,28.05,South,176,7.0,20.0,27,0.00,CLR,CLR,0.00,WeatherDisplay:10.37,2013-10-10 22:15:00,
2013-10-10 17:20:00,83.7,46.1,26.71,South,180,13.8,13.8,27,0.00,CLR,,0.00,WeatherDisplay:10.37,2013-10-10 22:20:00,
2013-10-10 17:25:00,83.5,46.9,26.71,SW,225,17.3,17.3,28,0.00,CLR,,0.00,WeatherDisplay:10.37,2013-10-10 22:25:00,
2013-10-10 17:30:00,83.1,46.6,28.05,South,175,8.0,24.0,28,0.00,CLR,CLR,0.00,WeatherDisplay:10.37,2013-10-10 22:30:00,
2013-10-10 17:35:00,82.9,46.5,26.71,South,180,12.7,12.7,28,0.00,CLR,,0.00,WeatherDisplay:10.37,2013-10-10 22:35:00,
2013-10-10 17:40:00,82.6,47.1,28.05,SSE,153,13.0,20.0,29,0.00,CLR,CLR,0.00,WeatherDisplay:10.37,2013-10-10 22:40:00,
2013-10-10 17:45:00,82.6,47.1,28.05,SSE,149,9.0,17.0,29,0.00,CLR,CLR,0.00,WeatherDisplay:10.37,2013-10-10 22:45:00,
2013-10-10 17:50:00,82.2,45.9,26.70,South,180,15.0,15.0,28,0.00,CLR,,0.00,WeatherDisplay:10.37,2013-10-10 22:50:00,
2013-10-10 17:55:00,81.8,45.5,28.05,South,179,14.0,21.0,28,0.00,CLR,CLR,0.00,WeatherDisplay:10.37,2013-10-10 22:55:00,
2013-10-10 17:59:00,81.1,46.8,26.70,SW,225,12.7,12.7,30,0.00,CLR,,0.00,WeatherDisplay:10.37,2013-10-10 22:59:00,
2013-10-10 18:05:00,81.0,47.5,26.70,SE,135,23.0,23.0,31,0.00,CLR,,0.00,WeatherDisplay:10.37,2013-10-10 23:05:00,
2013-10-10 18:10:00,80.5,47.9,28.05,South,176,10.0,25.0,32,0.00,CLR,CLR,0.00,WeatherDisplay:10.37,2013-10-10 23:10:00,
2013-10-10 18:15:00,80.1,48.4,26.70,South,180,21.9,21.9,33,0.00,CLR,,0.00,WeatherDisplay:10.37,2013-10-10 23:15:00,
2013-10-10 18:20:00,79.5,48.7,26.70,South,180,10.4,10.4,34,0.00,CLR,,0.00,WeatherDisplay:10.37,2013-10-10 23:20:00,
2013-10-10 18:25:00,79.3,49.3,28.05,SSE,167,9.0,15.0,35,0.00,CLR,CLR,0.00,WeatherDisplay:10.37,2013-10-10 23:25:00,
2013-10-10 18:30:00,79.0,49.0,26.70,South,180,12.7,12.7,35,0.00,CLR,,0.00,WeatherDisplay:10.37,2013-10-10 23:30:00,
2013-10-10 18:35:00,78.8,49.6,26.70,East,90,17.3,17.3,36,0.00,CLR,,0.00,WeatherDisplay:10.37,2013-10-10 23:35:00,
2013-10-10 18:40:00,78.6,50.9,28.05,SSE,161,8.0,20.0,38,0.00,CLR,CLR,0.00,WeatherDisplay:10.37,2013-10-10 23:40:00,
2013-10-10 18:45:00,78.4,50.7,26.70,South,180,12.7,12.7,38,0.00,CLR,,0.00,WeatherDisplay:10.37,2013-10-10 23:45:00,
2013-10-10 18:50:00,78.3,50.6,28.05,South,172,8.0,22.0,38,0.00,CLR,CLR,0.00,WeatherDisplay:10.37,2013-10-10 23:50:00,
2013-10-10 18:55:00,78.1,51.1,28.05,South,184,6.0,17.0,39,0.00,CLR,CLR,0.00,WeatherDisplay:10.37,2013-10-10 23:55:00,
2013-10-10 19:00:00,77.5,50.6,26.70,NE,45,12.7,12.7,39,0.00,CLR,,0.00,WeatherDisplay:10.37,2013-10-11 00:00:00,
2013-10-10 19:05:00,77.5,50.6,28.05,ENE,78,6.0,8.0,39,0.00,CLR,CLR,0.00,WeatherDisplay:10.37,2013-10-11 00:05:00,
2013-10-10 19:10:00,77.2,50.3,26.69,WSW,248,12.7,12.7,39,0.00,CLR,,0.00,WeatherDisplay:10.37,2013-10-11 00:10:00,
2013-10-10 19:15:00,77.0,50.1,26.69,South,180,13.8,13.8,39,0.00,CLR,,0.00,WeatherDisplay:10.37,2013-10-11 00:15:00,
2013-10-10 19:20:00,76.8,51.3,28.05,South,174,6.0,11.0,41,0.00,CLR,CLR,0.00,WeatherDisplay:10.37,2013-10-11 00:20:00,
2013-10-10 19:25:00,76.5,51.0,26.69,South,180,11.5,11.5,41,0.00,CLR,,0.00,WeatherDisplay:10.37,2013-10-11 00:25:00,
2013-10-10 19:30:00,76.1,51.3,26.68,South,180,10.4,10.4,42,0.00,CLR,,0.00,WeatherDisplay:10.37,2013-10-11 00:30:00,
2013-10-10 19:35:00,75.7,51.6,28.05,South,172,5.0,9.0,43,0.00,CLR,CLR,0.00,WeatherDisplay:10.37,2013-10-11 00:35:00,
2013-10-10 19:40:00,75.6,52.1,26.67,South,180,13.8,13.8,44,0.00,CLR,,0.00,WeatherDisplay:10.37,2013-10-11 00:40:00,
2013-10-10 19:45:00,75.6,52.1,26.67,South,180,15.0,15.0,44,0.00,CLR,,0.00,WeatherDisplay:10.37,2013-10-11 00:45:00,
2013-10-10 19:50:00,75.5,52.0,28.05,SSW,202,6.0,15.0,44,0.00,CLR,CLR,0.00,WeatherDisplay:10.37,2013-10-11 00:50:00,
2013-10-10 19:55:00,75.4,51.9,26.67,East,90,12.7,12.7,44,0.00,CLR,,0.00,WeatherDisplay:10.37,2013-10-11 00:55:00,
2013-10-10 20:00:00,75.4,51.9,28.05,SSE,147,6.0,11.0,44,0.00,CLR,CLR,0.00,WeatherDisplay:10.37,2013-10-11 01:00:00,
2013-10-10 20:05:00,75.2,51.8,28.05,SSE,152,7.0,14.0,44,0.00,CLR,CLR,0.00,WeatherDisplay:10.37,2013-10-11 01:05:00,
2013-10-10 20:10:00,75.2,51.8,26.67,South,180,18.4,18.4,44,0.00,CLR,,0.00,WeatherDisplay:10.37,2013-10-11 01:10:00,
2013-10-10 20:14:00,75.0,52.2,26.67,South,180,10.4,10.4,45,0.00,CLR,,0.00,WeatherDisplay:10.37,2013-10-11 01:14:00,
2013-10-10 20:20:00,74.8,52.1,26.66,SE,135,11.5,11.5,45,0.00,CLR,,0.00,WeatherDisplay:10.37,2013-10-11 01:20:00,
2013-10-10 20:25:00,74.7,52.5,26.66,SW,225,17.3,17.3,46,0.00,CLR,,0.00,WeatherDisplay:10.37,2013-10-11 01:25:00,
2013-10-10 20:30:00,74.5,52.3,26.66,SE,135,12.7,12.7,46,0.00,CLR,,0.00,WeatherDisplay:10.37,2013-10-11 01:30:00,
2013-10-10 20:35:00,74.5,52.3,28.05,South,185,9.0,15.0,46,0.00,CLR,CLR,0.00,WeatherDisplay:10.37,2013-10-11 01:35:00,
2013-10-10 20:40:00,74.5,52.3,26.67,South,180,20.7,20.7,46,0.00,CLR,,0.00,WeatherDisplay:10.37,2013-10-11 01:40:00,
2013-10-10 20:45:00,74.3,52.8,28.05,SSW,193,6.0,21.0,47,0.00,CLR,CLR,0.00,WeatherDisplay:10.37,2013-10-11 01:45:00,
2013-10-10 20:50:00,74.1,53.2,26.72,South,180,20.7,20.7,48,0.00,CLR,,0.00,WeatherDisplay:10.37,2013-10-11 01:50:00,
2013-10-10 20:55:00,72.7,56.6,28.05,South,171,5.0,26.0,57,0.00,CLR,CLR,0.00,WeatherDisplay:10.37,2013-10-11 01:55:00,
2013-10-10 21:00:00,67.3,56.4,28.05,SSW,194,5.0,12.0,68,0.00,CLR,CLR,0.00,WeatherDisplay:10.37,2013-10-11 02:00:00,
2013-10-10 21:05:00,66.7,56.2,26.76,SW,225,5.8,5.8,69,0.00,CLR,,0.00,WeatherDisplay:10.37,2013-10-11 02:05:00,
2013-10-10 21:10:00,61.7,56.1,28.05,SW,224,3.0,7.0,82,0.00,CLR,CLR,0.00,WeatherDisplay:10.37,2013-10-11 02:10:00,
2013-10-10 21:15:00,60.6,56.0,28.05,SSW,211,2.0,6.0,85,0.00,CLR,CLR,0.00,WeatherDisplay:10.37,2013-10-11 02:15:00,
2013-10-10 21:20:00,60.1,55.9,26.76,South,180,4.6,4.6,86,0.00,CLR,,0.00,WeatherDisplay:10.37,2013-10-11 02:20:00,
2013-10-10 21:25:00,59.7,55.8,28.05,SW,234,3.0,6.0,87,0.00,CLR,CLR,0.00,WeatherDisplay:10.37,2013-10-11 02:25:00,
2013-10-10 21:30:00,59.4,56.1,26.79,South,180,3.5,3.5,89,0.00,CLR,,0.00,WeatherDisplay:10.37,2013-10-11 02:30:00,
2013-10-10 21:35:00,59.0,56.4,26.79,South,180,6.9,6.9,91,0.00,CLR,,0.00,WeatherDisplay:10.37,2013-10-11 02:35:00,
2013-10-10 21:40:00,58.8,56.5,28.05,SSW,194,2.0,6.0,92,0.00,CLR,CLR,0.00,WeatherDisplay:10.37,2013-10-11 02:40:00,
2013-10-10 21:45:00,58.6,56.6,26.79,SW,225,3.5,3.8,93,0.00,CLR,,0.00,WeatherDisplay:10.37,2013-10-11 02:45:00,
2013-10-10 21:50:00,58.3,56.6,28.05,SSW,196,3.0,6.0,94,0.00,CLR,CLR,0.00,WeatherDisplay:10.37,2013-10-11 02:50:00,
2013-10-10 21:55:00,58.2,56.5,28.05,SSW,202,2.0,6.0,94,0.00,CLR,CLR,0.00,WeatherDisplay:10.37,2013-10-11 02:55:00,
2013-10-10 22:00:00,57.9,56.2,26.78,SW,225,3.5,3.5,94,0.00,CLR,,0.00,WeatherDisplay:10.37,2013-10-11 03:00:00,
2013-10-10 22:05:00,57.7,56.0,28.05,South,185,2.0,6.0,94,0.00,CLR,CLR,0.00,WeatherDisplay:10.37,2013-10-11 03:05:00,
2013-10-10 22:10:00,57.4,55.7,28.05,SSW,198,2.0,4.0,94,0.00,CLR,CLR,0.00,WeatherDisplay:10.37,2013-10-11 03:10:00,
2013-10-10 22:15:00,57.2,55.5,26.76,SE,135,3.5,3.5,94,0.00,CLR,,0.00,WeatherDisplay:10.37,2013-10-11 03:15:00,
2013-10-10 22:20:00,56.8,55.4,28.05,South,190,1.0,4.0,95,0.00,CLR,CLR,0.00,WeatherDisplay:10.37,2013-10-11 03:20:00,
2013-10-10 22:25:00,56.8,55.4,26.74,SW,225,2.3,2.3,95,0.00,CLR,,0.00,WeatherDisplay:10.37,2013-10-11 03:25:00,
2013-10-10 22:30:00,56.7,55.2,26.73,East,90,1.2,1.2,95,0.00,CLR,,0.00,WeatherDisplay:10.37,2013-10-11 03:30:00,
2013-10-10 22:35:00,56.7,55.2,28.05,SSE,161,2.0,3.0,95,0.00,CLR,CLR,0.00,WeatherDisplay:10.37,2013-10-11 03:35:00,
2013-10-10 22:40:00,56.5,55.1,26.73,South,180,2.3,2.3,95,0.00,CLR,,0.00,WeatherDisplay:10.37,2013-10-11 03:40:00,
2013-10-10 22:45:00,56.1,54.7,26.72,East,90,1.2,1.2,95,0.00,CLR,,0.00,WeatherDisplay:10.37,2013-10-11 03:45:00,
2013-10-10 22:50:00,55.9,54.5,28.05,South,175,1.0,3.0,95,0.00,CLR,CLR,0.00,WeatherDisplay:10.37,2013-10-11 03:50:00,
2013-10-10 22:55:00,55.9,54.8,26.73,ESE,112,3.5,3.5,96,0.00,CLR,,0.00,WeatherDisplay:10.37,2013-10-11 03:55:00,
2013-10-10 23:00:00,55.8,54.6,26.72,SSW,202,4.6,4.6,96,0.00,CLR,,0.00,WeatherDisplay:10.37,2013-10-11 04:00:00,
2013-10-10 23:01:00,55.8,54.6,26.73,SSW,202,4.6,4.6,96,0.00,CLR,,0.00,WeatherDisplay:10.37,2013-10-11 04:01:00,
2013-10-10 23:02:00,55.8,54.6,26.72,SSW,202,4.6,4.6,96,0.00,CLR,,0.00,WeatherDisplay:10.37,2013-10-11 04:02:00,
2013-10-10 23:07:00,55.8,54.6,26.71,SSW,202,4.6,4.6,96,0.00,CLR,,0.00,WeatherDisplay:10.37,2013-10-11 04:07:00,
2013-10-10 23:12:00,55.4,54.3,26.71,SE,135,3.5,3.5,96,0.00,CLR,,0.00,WeatherDisplay:10.37,2013-10-11 04:12:00,
2013-10-10 23:17:00,55.4,54.3,26.71,SE,135,4.6,4.6,96,0.00,CLR,,0.00,WeatherDisplay:10.37,2013-10-11 04:17:00,
2013-10-10 23:22:00,55.4,54.6,26.70,South,180,5.8,5.8,97,0.00,CLR,,0.00,WeatherDisplay:10.37,2013-10-11 04:22:00,
2013-10-10 23:27:00,55.2,54.4,26.70,SSW,202,5.8,5.8,97,0.00,CLR,,0.00,WeatherDisplay:10.37,2013-10-11 04:27:00,
2013-10-10 23:32:00,55.0,54.2,26.70,SW,225,5.8,5.8,97,0.00,CLR,,0.00,WeatherDisplay:10.37,2013-10-11 04:32:00,
2013-10-10 23:37:00,54.9,54.0,26.70,SW,225,5.8,5.8,97,0.00,CLR,,0.00,WeatherDisplay:10.37,2013-10-11 04:37:00,
2013-10-10 23:42:00,54.7,53.8,26.72,South,180,4.6,4.6,97,0.00,CLR,,0.00,WeatherDisplay:10.37,2013-10-11 04:42:00,
2013-10-10 23:47:00,54.5,53.7,26.71,South,180,3.5,3.5,97,0.00,CLR,,0.00,WeatherDisplay:10.37,2013-10-11 04:47:00,
2013-10-10 23:52:00,54.3,53.5,26.72,South,180,3.5,3.5,97,0.00,CLR,,0.00,WeatherDisplay:10.37,2013-10-11 04:52:00,
2013-10-10 23:57:00,54.1,53.3,26.73,South,180,4.6,4.6,97,0.00,CLR,,0.00,WeatherDisplay:10.37,2013-10-11 04:57:00,